Time;durP1;ratioP1;P1;durP2;ratioP2;P2;SDS_P1;SDS_P2;PMS_P1;PMS_P2;Temp;Humidity;BMP_temperature;BMP_pressure;BME280_temperature;BME280_humidity;BME280_pressure;Samples;Min_cycle;Max_cycle;Signal;HPM_P1;HPM_P2
2021/06/24 00:01:04;;;;;;;4.43;3.35;;;;;14.20;100725.00;;;;5086916;28;20016;-79
2021/06/24 00:03:33;;;;;;;17.63;3.80;;;;;14.10;100717.00;;;;5086976;28;20513;-81
2021/06/24 00:06:01;;;;;;;14.98;3.50;;;;;14.10;100711.00;;;;5087574;28;20020;-80
2021/06/24 00:08:29;;;;;;;4.07;3.00;;;;;14.10;100707.00;;;;5087305;28;20028;-80
2021/06/24 00:10:58;;;;;;;5.85;3.00;;;;;14.10;100716.00;;;;5086639;28;20077;-81
2021/06/24 00:13:25;;;;;;;3.08;2.47;;;;;14.20;100699.00;;;;5086963;28;20031;-79
2021/06/24 00:15:53;;;;;;;8.93;2.53;;;;;14.10;100693.00;;;;5087203;28;20024;-78
2021/06/24 00:18:20;;;;;;;3.33;2.05;;;;;13.90;100696.00;;;;5087267;28;20051;-78
2021/06/24 00:20:48;;;;;;;2.90;2.10;;;;;13.80;100677.00;;;;5087237;28;20748;-78
2021/06/24 00:23:15;;;;;;;5.80;2.20;;;;;13.80;100673.00;;;;5068656;28;20490;-78
2021/06/24 00:25:42;;;;;;;14.48;2.70;;;;;13.90;100679.00;;;;5086715;28;20028;-77
2021/06/24 00:28:14;;;;;;;5.78;2.17;;;;;14.00;100668.00;;;;5087412;28;20035;-79
2021/06/24 00:30:41;;;;;;;3.40;2.25;;;;;14.00;100662.00;;;;5087199;28;20118;-78
2021/06/24 00:33:07;;;;;;;4.57;2.05;;;;;13.90;100668.00;;;;5068399;28;20032;-78
2021/06/24 00:35:34;;;;;;;3.53;1.75;;;;;13.90;100649.00;;;;5087099;28;20047;-78
2021/06/24 00:38:00;;;;;;;9.75;2.17;;;;;14.00;100630.00;;;;5086331;28;20103;-79
2021/06/24 00:40:27;;;;;;;3.22;1.85;;;;;14.00;100637.00;;;;5086915;28;20038;-78
2021/06/24 00:42:55;;;;;;;2.90;1.80;;;;;14.10;100624.00;;;;5087043;28;20063;-78
2021/06/24 00:45:21;;;;;;;5.10;2.10;;;;;14.20;100616.00;;;;5086015;28;20499;-78
2021/06/24 00:47:48;;;;;;;2.55;2.13;;;;;14.30;100604.00;;;;5086014;28;20028;-77
2021/06/24 00:50:15;;;;;;;2.90;1.70;;;;;14.50;100634.00;;;;5086800;28;20772;-78
2021/06/24 00:52:42;;;;;;;3.40;1.83;;;;;14.70;100588.00;;;;5086548;28;20671;-78
2021/06/24 00:55:09;;;;;;;4.38;1.60;;;;;14.80;100575.00;;;;5086918;28;20024;-78
2021/06/24 00:57:36;;;;;;;4.63;1.90;;;;;14.80;100602.00;;;;5086843;28;20558;-79
2021/06/24 01:00:05;;;;;;;4.35;1.70;;;;;14.80;100601.00;;;;5086752;28;20032;-78
2021/06/24 01:02:32;;;;;;;2.05;1.60;;;;;15.20;100588.00;;;;5086973;28;20387;-78
2021/06/24 01:04:59;;;;;;;3.10;1.15;;;;;15.50;100575.00;;;;5086645;28;20028;-77
2021/06/24 01:07:26;;;;;;;4.30;1.30;;;;;15.90;100567.00;;;;5086847;28;20414;-78
2021/06/24 01:09:52;;;;;;;2.67;1.25;;;;;15.70;100548.00;;;;5086974;28;20028;-77
2021/06/24 01:12:21;;;;;;;5.05;1.30;;;;;15.60;100549.00;;;;5086429;28;20028;-78
2021/06/24 01:14:50;;;;;;;4.53;1.30;;;;;15.80;100526.00;;;;5086060;28;20035;-78
2021/06/24 01:17:17;;;;;;;3.55;0.85;;;;;16.10;100521.00;;;;5086319;28;20495;-74
2021/06/24 01:19:44;;;;;;;3.03;1.20;;;;;16.50;100529.00;;;;5086133;28;20407;-78
2021/06/24 01:22:12;;;;;;;3.38;1.23;;;;;16.60;100528.00;;;;5086624;28;20059;-78
2021/06/24 01:24:39;;;;;;;5.40;1.40;;;;;16.70;100534.00;;;;5086535;28;20035;-78
2021/06/24 01:27:06;;;;;;;3.00;1.05;;;;;16.60;100534.00;;;;5086771;28;20055;-79
2021/06/24 01:29:32;;;;;;;0.90;0.80;;;;;16.90;100528.00;;;;5086481;28;20032;-78
2021/06/24 01:31:59;;;;;;;6.35;1.48;;;;;16.70;100533.00;;;;5068218;28;20057;-78
2021/06/24 01:34:26;;;;;;;2.97;1.00;;;;;16.80;100562.00;;;;5086629;28;20031;-78
2021/06/24 01:36:52;;;;;;;2.08;0.85;;;;;16.60;100555.00;;;;5086500;28;20422;-78
2021/06/24 01:39:19;;;;;;;4.28;1.20;;;;;16.90;100560.00;;;;5086661;28;20728;-78
2021/06/24 01:41:57;;;;;;;3.60;1.10;;;;;16.90;100543.00;;;;5087075;28;20024;-78
2021/06/24 01:44:36;;;;;;;3.85;1.30;;;;;16.60;100546.00;;;;5090062;28;20036;-77
2021/06/24 01:47:04;;;;;;;5.30;1.25;;;;;17.10;100534.00;;;;5090365;28;20024;-77
2021/06/24 01:49:31;;;;;;;1.88;0.90;;;;;17.30;100514.00;;;;5090590;28;20032;-78
2021/06/24 01:51:58;;;;;;;2.88;1.00;;;;;17.30;100537.00;;;;5090135;28;20031;-78
2021/06/24 01:54:25;;;;;;;1.40;0.98;;;;;17.30;100513.00;;;;5089876;28;20061;-77
2021/06/24 01:56:51;;;;;;;3.20;1.20;;;;;17.20;100510.00;;;;5089973;28;20044;-78
2021/06/24 01:59:18;;;;;;;4.70;0.85;;;;;16.90;100530.00;;;;5089423;28;20119;-78
2021/06/24 02:01:45;;;;;;;2.38;0.93;;;;;16.90;100523.00;;;;5089825;28;20032;-77
2021/06/24 02:04:11;;;;;;;2.65;1.00;;;;;16.90;100528.00;;;;5089636;28;20183;-78
2021/06/24 02:06:39;;;;;;;2.40;0.80;;;;;16.90;100531.00;;;;5089563;28;20059;-78
2021/06/24 02:09:06;;;;;;;1.75;0.90;;;;;17.10;100522.00;;;;5089753;28;20051;-79
2021/06/24 02:11:33;;;;;;;2.65;1.00;;;;;16.90;100490.00;;;;5090002;28;20035;-78
2021/06/24 02:14:01;;;;;;;2.95;1.00;;;;;16.80;100501.00;;;;5089495;28;20101;-78
2021/06/24 02:16:27;;;;;;;3.65;1.00;;;;;16.70;100501.00;;;;5089877;28;20028;-78
2021/06/24 02:18:54;;;;;;;3.15;1.00;;;;;17.00;100510.00;;;;5089406;28;20063;-79
2021/06/24 02:21:21;;;;;;;5.22;1.00;;;;;16.90;100510.00;;;;5089138;28;20028;-78
2021/06/24 02:23:47;;;;;;;2.65;0.93;;;;;17.00;100493.00;;;;5089061;28;20028;-78
2021/06/24 02:26:14;;;;;;;1.48;1.00;;;;;17.10;100510.00;;;;5089202;28;20406;-76
2021/06/24 02:28:40;;;;;;;2.72;1.20;;;;;17.30;100497.00;;;;5071342;28;20103;-78
2021/06/24 02:31:07;;;;;;;3.83;1.20;;;;;17.20;100510.00;;;;5071150;28;20028;-78
2021/06/24 02:33:34;;;;;;;2.20;0.90;;;;;17.40;100508.00;;;;5089625;28;20025;-79
2021/06/24 02:36:01;;;;;;;2.55;1.17;;;;;17.30;100501.00;;;;5088710;28;20070;-77
2021/06/24 02:38:27;;;;;;;1.73;1.00;;;;;17.50;100513.00;;;;5088843;28;20042;-78
2021/06/24 02:40:54;;;;;;;2.97;1.30;;;;;17.30;100500.00;;;;5088979;28;20780;-78
2021/06/24 02:43:21;;;;;;;2.88;1.00;;;;;17.30;100497.00;;;;5089300;28;20023;-78
2021/06/24 02:45:47;;;;;;;2.92;0.95;;;;;17.50;100507.00;;;;5089399;28;20024;-78
2021/06/24 02:48:14;;;;;;;1.85;0.90;;;;;17.50;100503.00;;;;5089058;28;20054;-78
2021/06/24 02:50:40;;;;;;;6.50;1.23;;;;;17.30;100508.00;;;;5089039;28;20024;-79
2021/06/24 02:53:07;;;;;;;1.65;0.90;;;;;17.10;100504.00;;;;5088561;28;20066;-78
2021/06/24 02:55:34;;;;;;;3.88;1.40;;;;;16.80;100522.00;;;;5088737;28;20028;-79
2021/06/24 02:58:01;;;;;;;5.53;1.17;;;;;16.70;100526.00;;;;5088843;28;20510;-78
2021/06/24 03:00:28;;;;;;;2.50;1.20;;;;;16.50;100523.00;;;;5088873;28;20032;-77
2021/06/24 03:02:55;;;;;;;5.82;1.00;;;;;16.30;100516.00;;;;5088388;28;20031;-78
2021/06/24 03:05:21;;;;;;;5.00;1.10;;;;;16.00;100505.00;;;;5088944;28;20035;-78
2021/06/24 03:07:48;;;;;;;3.90;1.10;;;;;15.70;100494.00;;;;5088646;28;20032;-78
2021/06/24 03:10:17;;;;;;;17.33;2.13;;;;;15.50;100485.00;;;;5088800;28;20040;-78
2021/06/24 03:12:45;;;;;;;3.45;1.20;;;;;15.40;100496.00;;;;5088373;28;20032;-78
2021/06/24 03:15:12;;;;;;;2.58;0.90;;;;;15.30;100478.00;;;;5088371;28;20024;-78
2021/06/24 03:17:39;;;;;;;7.65;1.25;;;;;15.20;100458.00;;;;5088829;28;20115;-78
2021/06/24 03:20:08;;;;;;;3.22;1.20;;;;;15.10;100471.00;;;;5087829;28;20486;-78
2021/06/24 03:22:35;;;;;;;5.03;1.30;;;;;15.00;100462.00;;;;5087884;28;20028;-77
2021/06/24 03:25:06;;;;;;;6.25;1.30;;;;;15.00;100454.00;;;;5087954;28;20027;-79
2021/06/24 03:27:33;;;;;;;;;;;;;15.00;100443.00;;;;5089178;28;20440;-77
2021/06/24 03:30:00;;;;;;;3.15;1.17;;;;;14.90;100448.00;;;;5087954;28;20007;-78
2021/06/24 03:32:26;;;;;;;8.73;1.15;;;;;14.90;100441.00;;;;5088105;28;20062;-78
2021/06/24 03:34:53;;;;;;;3.67;1.10;;;;;15.10;100402.00;;;;5087515;28;20028;-78
2021/06/24 03:37:19;;;;;;;4.05;1.20;;;;;15.40;100393.00;;;;5088194;28;20028;-78
2021/06/24 03:39:48;;;;;;;1.73;1.05;;;;;15.00;100419.00;;;;5087772;28;20041;-78
2021/06/24 03:42:15;;;;;;;3.25;1.08;;;;;14.80;100405.00;;;;5088343;28;20028;-78
2021/06/24 03:44:41;;;;;;;1.10;1.00;;;;;14.70;100387.00;;;;5088101;28;20432;-78
2021/06/24 03:47:08;;;;;;;4.60;1.50;;;;;14.70;100386.00;;;;5087692;28;20479;-79
2021/06/24 03:49:34;;;;;;;3.00;1.30;;;;;14.80;100358.00;;;;5087464;28;20054;-78
2021/06/24 03:52:01;;;;;;;7.57;1.70;;;;;14.90;100351.00;;;;5087709;28;20019;-78
2021/06/24 03:54:28;;;;;;;4.18;1.15;;;;;15.20;100344.00;;;;5091220;28;20028;-78
2021/06/24 03:56:54;;;;;;;3.90;1.70;;;;;15.40;100335.00;;;;5097840;28;20084;-78
2021/06/24 03:59:21;;;;;;;3.80;0.90;;;;;15.60;100332.00;;;;5096855;28;20024;-78
2021/06/24 04:01:48;;;;;;;1.27;0.85;;;;;15.80;100330.00;;;;5092454;28;20085;-77
2021/06/24 04:04:16;;;;;;;2.50;1.20;;;;;15.80;100324.00;;;;5086918;28;20113;-78
2021/06/24 04:06:43;;;;;;;3.67;1.05;;;;;16.10;100316.00;;;;5087823;28;20071;-78
2021/06/24 04:09:11;;;;;;;1.27;0.90;;;;;16.10;100298.00;;;;5087677;28;20398;-78
2021/06/24 04:11:38;;;;;;;5.32;1.15;;;;;16.20;100289.00;;;;5087484;28;20075;-78
2021/06/24 04:14:04;;;;;;;1.73;1.00;;;;;16.40;100285.00;;;;5087445;28;20023;-76
2021/06/24 04:16:31;;;;;;;1.02;0.73;;;;;16.30;100275.00;;;;5087364;28;20107;-78
2021/06/24 04:18:58;;;;;;;1.48;0.90;;;;;16.50;100272.00;;;;5086978;28;20437;-77
2021/06/24 04:21:24;;;;;;;1.73;0.82;;;;;16.50;100282.00;;;;5086926;28;20032;-78
2021/06/24 04:23:52;;;;;;;1.70;0.88;;;;;16.80;100277.00;;;;5088003;28;20073;-78
2021/06/24 04:26:18;;;;;;;3.15;0.98;;;;;16.80;100274.00;;;;5087869;28;20107;-78
2021/06/24 04:28:45;;;;;;;1.60;0.80;;;;;17.10;100283.00;;;;5087111;28;20036;-77
2021/06/24 04:31:12;;;;;;;2.30;1.00;;;;;17.20;100282.00;;;;5086989;28;20024;-78
2021/06/24 04:33:38;;;;;;;5.35;1.05;;;;;16.90;100302.00;;;;5087129;28;20024;-78
2021/06/24 04:36:05;;;;;;;5.88;1.00;;;;;16.60;100286.00;;;;5086862;28;20065;-77
2021/06/24 04:38:32;;;;;;;3.85;1.10;;;;;16.60;100280.00;;;;5086974;28;20119;-78
2021/06/24 04:40:58;;;;;;;1.13;0.90;;;;;16.80;100294.00;;;;5086902;28;20115;-77
2021/06/24 04:43:25;;;;;;;1.55;0.70;;;;;16.70;100289.00;;;;5086476;28;20065;-77
2021/06/24 04:45:52;;;;;;;1.70;0.70;;;;;16.90;100282.00;;;;5086874;28;20032;-76
2021/06/24 04:48:19;;;;;;;2.42;1.00;;;;;16.90;100289.00;;;;5086806;28;20024;-78
2021/06/24 04:50:46;;;;;;;3.95;0.70;;;;;17.00;100293.00;;;;5087146;28;20036;-78
2021/06/24 04:53:13;;;;;;;4.90;0.77;;;;;17.10;100284.00;;;;5086911;28;20028;-77
2021/06/24 04:55:40;;;;;;;3.15;0.90;;;;;16.90;100278.00;;;;5087019;28;20024;-78
2021/06/24 04:58:07;;;;;;;1.40;0.70;;;;;16.90;100274.00;;;;5086285;28;20059;-77
2021/06/24 05:00:35;;;;;;;1.42;0.90;;;;;16.90;100285.00;;;;5086353;28;20121;-78
2021/06/24 05:03:03;;;;;;;1.67;0.90;;;;;17.10;100265.00;;;;5086953;28;20031;-78
2021/06/24 05:05:30;;;;;;;1.67;0.90;;;;;16.80;100266.00;;;;5086600;28;20036;-78
2021/06/24 05:07:56;;;;;;;1.58;0.80;;;;;16.50;100269.00;;;;5087057;28;20077;-78
2021/06/24 05:10:23;;;;;;;1.65;0.85;;;;;16.40;100256.00;;;;5086566;28;20032;-78
2021/06/24 05:12:51;;;;;;;3.22;1.23;;;;;16.30;100233.00;;;;5087144;28;20056;-78
2021/06/24 05:15:17;;;;;;;3.53;1.27;;;;;16.30;100236.00;;;;5086604;28;20016;-78
2021/06/24 05:17:44;;;;;;;2.78;1.20;;;;;16.30;100222.00;;;;5089620;28;20024;-78
2021/06/24 05:20:11;;;;;;;2.17;0.88;;;;;16.30;100225.00;;;;5091178;28;20042;-78
2021/06/24 05:22:39;;;;;;;1.92;0.75;;;;;16.20;100222.00;;;;5090415;28;20494;-77
2021/06/24 05:25:06;;;;;;;4.60;1.35;;;;;16.00;100240.00;;;;5090566;28;20491;-78
2021/06/24 05:27:32;;;;;;;3.08;1.00;;;;;15.90;100240.00;;;;5090110;28;20834;-79
2021/06/24 05:29:59;;;;;;;10.07;1.38;;;;;15.80;100215.00;;;;5090600;28;20032;-78
2021/06/24 05:32:25;;;;;;;9.32;1.17;;;;;15.60;100209.00;;;;5090156;28;20493;-78
2021/06/24 05:34:52;;;;;;;13.48;2.08;;;;;15.40;100213.00;;;;5090504;28;20031;-78
2021/06/24 05:37:18;;;;;;;1.20;0.90;;;;;15.10;100195.00;;;;5090581;28;20115;-78
2021/06/24 05:39:45;;;;;;;3.42;1.10;;;;;15.00;100205.00;;;;5090162;28;20085;-78
2021/06/24 05:42:12;;;;;;;4.00;1.08;;;;;14.80;100201.00;;;;5089890;28;20108;-78
2021/06/24 05:44:38;;;;;;;4.55;0.90;;;;;14.70;100185.00;;;;5091184;28;20059;-78
2021/06/24 05:47:05;;;;;;;3.15;1.00;;;;;14.60;100204.00;;;;5090656;28;20023;-78
2021/06/24 05:49:31;;;;;;;2.97;1.17;;;;;14.50;100210.00;;;;5089915;28;20041;-78
2021/06/24 05:51:58;;;;;;;10.90;1.38;;;;;14.50;100214.00;;;;5089815;28;20035;-78
2021/06/24 05:54:24;;;;;;;5.05;1.02;;;;;14.50;100196.00;;;;5090768;28;20723;-77
2021/06/24 05:56:51;;;;;;;2.45;1.08;;;;;14.40;100215.00;;;;5089792;28;20052;-78
2021/06/24 05:59:18;;;;;;;2.92;1.10;;;;;14.40;100195.00;;;;5090022;28;20032;-79
2021/06/24 06:01:47;;;;;;;7.00;1.45;;;;;14.40;100171.00;;;;5090016;28;20094;-78
2021/06/24 06:04:15;;;;;;;1.25;0.90;;;;;14.40;100162.00;;;;5089880;28;20047;-78
2021/06/24 06:06:42;;;;;;;2.60;1.13;;;;;14.40;100147.00;;;;5090229;28;20024;-79
2021/06/24 06:09:08;;;;;;;4.00;0.98;;;;;14.40;100124.00;;;;5089185;28;20556;-78
2021/06/24 06:11:35;;;;;;;5.38;1.48;;;;;14.60;100125.00;;;;5089475;28;20487;-78
2021/06/24 06:14:02;;;;;;;11.80;1.85;;;;;14.60;100114.00;;;;5089595;28;20082;-78
2021/06/24 06:16:29;;;;;;;3.17;1.23;;;;;14.60;100103.00;;;;5089792;28;20047;-78
2021/06/24 06:18:56;;;;;;;3.05;1.00;;;;;14.60;100075.00;;;;5089314;28;20028;-78
2021/06/24 06:21:27;;;;;;;6.57;1.33;;;;;14.70;100092.00;;;;5089418;28;20537;-78
2021/06/24 06:23:54;;;;;;;3.72;1.27;;;;;14.80;100051.00;;;;5089024;28;20028;-78
2021/06/24 06:26:20;;;;;;;3.42;1.23;;;;;14.80;100079.00;;;;5089701;28;20102;-78
2021/06/24 06:28:47;;;;;;;4.78;1.40;;;;;14.80;100116.00;;;;5088860;28;20024;-78
2021/06/24 06:31:16;;;;;;;4.10;1.20;;;;;14.80;100068.00;;;;5088886;28;20459;-79
2021/06/24 06:33:42;;;;;;;2.67;0.98;;;;;14.70;100063.00;;;;5089086;28;20659;-78
2021/06/24 06:36:09;;;;;;;4.30;1.10;;;;;14.60;100050.00;;;;5088777;28;20024;-79
2021/06/24 06:38:36;;;;;;;1.75;1.00;;;;;14.50;100048.00;;;;5088912;28;20027;-78
2021/06/24 06:41:02;;;;;;;3.67;1.13;;;;;14.50;100029.00;;;;5089118;28;20036;-79
2021/06/24 06:43:29;;;;;;;2.80;0.70;;;;;14.60;100045.00;;;;5089559;28;20024;-78
2021/06/24 06:45:56;;;;;;;3.33;0.80;;;;;14.60;100025.00;;;;5089117;28;20502;-78
2021/06/24 06:48:22;;;;;;;2.15;0.98;;;;;14.60;100014.00;;;;5089215;28;20121;-78
2021/06/24 06:50:49;;;;;;;3.42;1.13;;;;;14.70;100014.00;;;;5089013;28;20036;-78
2021/06/24 06:53:16;;;;;;;2.67;1.33;;;;;14.50;100040.00;;;;5089070;28;20105;-78
2021/06/24 06:55:43;;;;;;;7.63;1.20;;;;;14.60;100025.00;;;;5089020;28;20028;-78
2021/06/24 06:58:10;;;;;;;4.70;1.10;;;;;14.60;100020.00;;;;5088714;28;20092;-80
2021/06/24 07:00:37;;;;;;;12.68;1.80;;;;;14.50;100019.00;;;;5087982;28;20032;-79
2021/06/24 07:03:04;;;;;;;1.65;1.20;;;;;14.50;99989.00;;;;5070628;28;20036;-78
2021/06/24 07:05:30;;;;;;;5.90;1.17;;;;;14.40;100004.00;;;;5088777;28;20497;-79
2021/06/24 07:07:57;;;;;;;12.13;1.73;;;;;14.50;99997.00;;;;5088778;28;20028;-77
2021/06/24 07:10:24;;;;;;;7.90;1.90;;;;;14.70;99990.00;;;;5088221;28;20028;-79
2021/06/24 07:12:51;;;;;;;2.80;1.70;;;;;14.90;99961.00;;;;5088633;28;20059;-77
2021/06/24 07:15:18;;;;;;;2.70;1.63;;;;;15.10;99949.00;;;;5069952;28;20123;-78
2021/06/24 07:17:45;;;;;;;1.92;1.25;;;;;15.30;99933.00;;;;5088178;28;20085;-78
2021/06/24 07:20:12;;;;;;;0.80;0.77;;;;;15.60;99914.00;;;;5087963;28;20122;-79
2021/06/24 07:22:39;;;;;;;4.60;0.90;;;;;15.90;99928.00;;;;5088529;28;20032;-79
2021/06/24 07:25:07;;;;;;;3.22;1.00;;;;;16.10;99915.00;;;;5088188;28;20490;-78
2021/06/24 07:27:34;;;;;;;2.88;1.10;;;;;16.00;99934.00;;;;5088267;28;20032;-77
2021/06/24 07:30:00;;;;;;;1.27;0.80;;;;;15.80;99926.00;;;;5088489;28;20031;-78
2021/06/24 07:32:27;;;;;;;7.00;1.02;;;;;15.60;99907.00;;;;5087904;28;20395;-78
2021/06/24 07:34:53;;;;;;;2.25;1.02;;;;;15.40;99875.00;;;;5088286;28;20036;-78
2021/06/24 07:37:20;;;;;;;6.72;0.95;;;;;15.30;99876.00;;;;5070326;28;20020;-78
2021/06/24 07:39:46;;;;;;;2.55;0.85;;;;;15.20;99857.00;;;;5087061;28;20026;-77
2021/06/24 07:42:13;;;;;;;1.83;0.90;;;;;15.20;99865.00;;;;5087822;28;20028;-78
2021/06/24 07:44:40;;;;;;;1.83;0.93;;;;;15.10;99864.00;;;;5088089;28;20066;-78
2021/06/24 07:47:06;;;;;;;1.35;0.60;;;;;15.10;99849.00;;;;5087595;28;20042;-78
2021/06/24 07:49:33;;;;;;;2.03;0.70;;;;;15.10;99856.00;;;;5088078;28;20032;-78
2021/06/24 07:51:59;;;;;;;3.75;1.02;;;;;15.00;99857.00;;;;5088470;28;20102;-78
2021/06/24 07:54:26;;;;;;;1.25;0.82;;;;;15.00;99848.00;;;;5087907;28;20039;-78
2021/06/24 07:56:54;;;;;;;1.10;0.40;;;;;15.40;99840.00;;;;5087461;28;20427;-78
2021/06/24 07:59:21;;;;;;;2.50;0.63;;;;;15.50;99845.00;;;;5087396;28;20558;-78
2021/06/24 08:01:48;;;;;;;0.70;0.30;;;;;15.80;99853.00;;;;5087285;28;20394;-78
2021/06/24 08:04:15;;;;;;;8.05;0.90;;;;;15.90;99849.00;;;;5087528;28;20028;-78
2021/06/24 08:06:41;;;;;;;1.00;0.45;;;;;15.90;99831.00;;;;5088060;28;20028;-79
2021/06/24 08:09:10;;;;;;;1.05;0.30;;;;;16.50;99838.00;;;;5087489;28;20033;-78
2021/06/24 08:11:37;;;;;;;2.50;0.40;;;;;16.80;99822.00;;;;5087283;28;20027;-78
2021/06/24 08:14:04;;;;;;;2.53;0.50;;;;;16.80;99819.00;;;;5087851;28;20364;-79
2021/06/24 08:16:31;;;;;;;2.47;0.65;;;;;16.80;99801.00;;;;5087098;28;20028;-78
2021/06/24 08:18:58;;;;;;;0.98;0.32;;;;;16.90;99818.00;;;;5086778;28;20040;-78
2021/06/24 08:21:24;;;;;;;1.85;0.30;;;;;16.70;99837.00;;;;5087711;28;20395;-79
2021/06/24 08:23:51;;;;;;;0.45;0.30;;;;;16.50;99833.00;;;;5086599;28;20488;-77
2021/06/24 08:26:18;;;;;;;3.85;0.40;;;;;16.40;99823.00;;;;5086826;28;20064;-79
2021/06/24 08:28:45;;;;;;;3.20;0.70;;;;;16.20;99853.00;;;;5087019;28;20028;-78
2021/06/24 08:31:11;;;;;;;0.93;0.45;;;;;16.40;99825.00;;;;5088316;28;20503;-79
2021/06/24 08:33:38;;;;;;;7.68;0.50;;;;;16.30;99836.00;;;;5087159;28;20032;-78
2021/06/24 08:36:06;;;;;;;4.22;0.73;;;;;16.00;99832.00;;;;5087625;28;20166;-79
2021/06/24 08:38:32;;;;;;;4.90;0.35;;;;;15.80;99824.00;;;;5087252;28;20020;-78
2021/06/24 08:41:00;;;;;;;0.98;0.82;;;;;15.60;99847.00;;;;5087378;28;20078;-79
2021/06/24 08:43:27;;;;;;;3.00;0.47;;;;;15.90;99836.00;;;;5086556;28;20059;-77
2021/06/24 08:46:02;;;;;;;5.10;0.30;;;;;15.80;99818.00;;;;5087321;28;20035;-78
2021/06/24 08:48:36;;;;;;;2.35;0.50;;;;;15.60;99789.00;;;;5086739;28;20052;-78
2021/06/24 08:51:05;;;;;;;0.40;0.40;;;;;15.60;99811.00;;;;5089639;28;20040;-78
2021/06/24 08:53:32;;;;;;;1.95;0.55;;;;;15.70;99796.00;;;;5093461;28;20028;-78
2021/06/24 08:55:59;;;;;;;0.40;0.30;;;;;15.70;99793.00;;;;5094074;28;20036;-79
2021/06/24 08:58:26;;;;;;;0.77;0.30;;;;;16.20;99785.00;;;;5099141;28;20073;-78
2021/06/24 09:00:54;;;;;;;1.75;0.38;;;;;16.20;99783.00;;;;5103872;28;20038;-78
2021/06/24 09:03:25;;;;;;;1.77;0.40;;;;;16.20;99790.00;;;;5102704;28;20750;-79
2021/06/24 09:06:03;;;;;;;10.40;1.50;;;;;16.00;99793.00;;;;5094374;28;20028;-77
2021/06/24 09:08:41;;;;;;;0.55;0.30;;;;;15.90;99789.00;;;;5093802;28;20042;-78
2021/06/24 09:11:21;;;;;;;2.67;0.40;;;;;15.80;99777.00;;;;5093913;28;20059;-78
2021/06/24 09:14:04;;;;;;;1.25;0.40;;;;;15.60;99799.00;;;;5095449;28;20032;-78
2021/06/24 09:16:42;;;;;;;3.08;0.68;;;;;15.50;99785.00;;;;5093421;28;20036;-78
2021/06/24 09:19:29;;;;;;;0.73;0.40;;;;;15.50;99793.00;;;;5093587;28;20039;-78
2021/06/24 09:22:12;;;;;;;3.08;0.70;;;;;15.40;99781.00;;;;5093975;28;20402;-77
2021/06/24 09:24:41;;;;;;;1.40;0.45;;;;;15.30;99774.00;;;;5093733;28;20098;-78
2021/06/24 09:27:27;;;;;;;1.70;0.30;;;;;15.30;99776.00;;;;5093517;28;20777;-78
2021/06/24 09:30:11;;;;;;;0.82;0.50;;;;;15.60;99749.00;;;;5093054;28;20529;-78
2021/06/24 09:32:40;;;;;;;1.50;0.35;;;;;16.00;99753.00;;;;5093062;28;20024;-78
2021/06/24 09:35:09;;;;;;;4.47;0.50;;;;;16.00;99730.00;;;;5092897;28;20448;-78
2021/06/24 09:38:07;;;;;;;1.05;0.65;;;;;16.50;99750.00;;;;5092027;28;20064;-78
2021/06/24 09:40:53;;;;;;;4.78;0.47;;;;;17.30;99746.00;;;;5091046;28;20476;-78
2021/06/24 09:43:35;;;;;;;5.28;0.50;;;;;17.50;99737.00;;;;5089930;28;20024;-77
2021/06/24 09:46:13;;;;;;;1.33;0.50;;;;;17.60;99719.00;;;;5093514;28;20020;-77
2021/06/24 09:48:52;;;;;;;3.65;0.60;;;;;18.00;99717.00;;;;5093217;28;20062;-77
2021/06/24 09:51:22;;;;;;;7.60;1.20;;;;;17.90;99725.00;;;;5093213;28;20487;-77
2021/06/24 09:53:58;;;;;;;2.72;0.50;;;;;18.00;99725.00;;;;5092545;28;20032;-78
2021/06/24 09:56:51;;;;;;;1.92;0.60;;;;;18.10;99695.00;;;;5073155;28;20498;-78
2021/06/24 09:59:18;;;;;;;1.70;0.60;;;;;18.40;99717.00;;;;5092646;28;20063;-77
2021/06/24 10:01:50;;;;;;;4.85;0.43;;;;;18.60;99711.00;;;;5073968;28;20493;-78
2021/06/24 10:04:31;;;;;;;8.63;0.88;;;;;18.60;99704.00;;;;5089331;28;20032;-78
2021/06/24 10:07:00;;;;;;;16.27;1.08;;;;;18.60;99729.00;;;;5090262;28;20020;-78
2021/06/24 10:09:28;;;;;;;6.50;0.85;;;;;18.40;99713.00;;;;5089959;28;20039;-77
2021/06/24 10:11:56;;;;;;;14.70;3.00;;;;;18.10;99708.00;;;;5089477;28;20025;-78
2021/06/24 10:14:23;;;;;;;9.60;0.93;;;;;17.90;99727.00;;;;5089286;28;20491;-77
2021/06/24 10:16:55;;;;;;;7.97;0.88;;;;;17.70;99723.00;;;;5088871;28;21124;-78
2021/06/24 10:19:29;;;;;;;5.35;0.52;;;;;17.50;99726.00;;;;5089557;28;20364;-79
2021/06/24 10:22:00;;;;;;;9.80;1.35;;;;;17.30;99712.00;;;;5089430;28;20518;-78
2021/06/24 10:24:38;;;;;;;24.58;3.25;;;;;17.10;99720.00;;;;5089513;28;20039;-78
2021/06/24 10:27:08;;;;;;;14.38;2.28;;;;;16.90;99709.00;;;;5089341;28;20028;-78
2021/06/24 10:29:51;;;;;;;9.90;1.15;;;;;16.70;99714.00;;;;5089031;28;20135;-78
2021/06/24 10:32:26;;;;;;;8.70;1.20;;;;;17.10;99718.00;;;;5089374;28;20024;-79
2021/06/24 10:34:53;;;;;;;14.32;2.10;;;;;17.40;99715.00;;;;5086598;28;20043;-79
2021/06/24 10:37:23;;;;;;;12.02;3.50;;;;;17.50;99721.00;;;;5089189;28;20016;-79
2021/06/24 10:39:58;;;;;;;10.13;1.17;;;;;17.70;99699.00;;;;5089302;28;20057;-80
2021/06/24 10:42:29;;;;;;;12.98;2.72;;;;;17.70;99681.00;;;;5089510;28;20036;-77
2021/06/24 10:45:04;;;;;;;4.20;1.00;;;;;18.30;99689.00;;;;5089914;28;20220;-79
2021/06/24 10:47:35;;;;;;;0.82;0.60;;;;;18.50;99689.00;;;;5088627;28;20043;-79
2021/06/24 10:50:29;;;;;;;31.38;2.60;;;;;18.60;99688.00;;;;5089312;28;20055;-78
2021/06/24 10:53:06;;;;;;;9.27;1.60;;;;;18.30;99682.00;;;;5078162;28;20040;-78
2021/06/24 10:55:33;;;;;;;15.65;2.08;;;;;18.50;99698.00;;;;5088547;28;20047;-79
2021/06/24 10:58:01;;;;;;;5.68;0.95;;;;;18.40;99695.00;;;;5088656;28;20089;-77
2021/06/24 11:00:39;;;;;;;8.93;2.25;;;;;18.30;99704.00;;;;5088479;28;20074;-77
2021/06/24 11:03:08;;;;;;;6.10;1.08;;;;;18.20;99674.00;;;;5088773;28;20031;-78
2021/06/24 11:05:39;;;;;;;11.10;1.83;;;;;18.00;99708.00;;;;5088510;28;20086;-78
2021/06/24 11:08:19;;;;;;;2.60;1.05;;;;;18.00;99707.00;;;;5089041;28;20391;-77
2021/06/24 11:10:57;;;;;;;7.18;1.38;;;;;18.70;99698.00;;;;5070724;28;20520;-78
2021/06/24 11:13:48;;;;;;;6.32;1.02;;;;;18.90;99724.00;;;;5088247;28;20046;-78
2021/06/24 11:16:20;;;;;;;2.13;1.40;;;;;18.90;99705.00;;;;5087994;28;20043;-77
2021/06/24 11:18:58;;;;;;;3.88;0.90;;;;;19.50;99714.00;;;;5087815;28;20465;-77
2021/06/24 11:21:30;;;;;;;3.13;0.95;;;;;19.90;99696.00;;;;5087911;28;20028;-76
2021/06/24 11:24:01;;;;;;;5.07;1.35;;;;;20.10;99705.00;;;;5087641;28;20032;-76
2021/06/24 11:26:29;;;;;;;9.90;1.05;;;;;20.00;99722.00;;;;5088358;28;20024;-77
2021/06/24 11:29:01;;;;;;;1.58;0.80;;;;;20.10;99741.00;;;;5088482;28;20483;-77
2021/06/24 11:31:35;;;;;;;6.47;1.20;;;;;20.50;99746.00;;;;5088271;28;20024;-74
2021/06/24 11:34:29;;;;;;;3.80;1.05;;;;;20.70;99755.00;;;;5087568;28;20421;-76
2021/06/24 11:36:53;;;;;;;8.93;1.00;;;;;20.40;99757.00;;;;5087431;28;20070;-77
2021/06/24 11:39:23;;;;;;;18.52;10.70;;;;;20.30;99774.00;;;;5087590;28;20032;-77
2021/06/24 11:42:02;;;;;;;7.23;1.70;;;;;20.20;99764.00;;;;5087801;28;20656;-76
2021/06/24 11:44:38;;;;;;;1.90;1.13;;;;;19.80;99787.00;;;;5087774;28;20278;-77
2021/06/24 11:47:08;;;;;;;3.17;0.90;;;;;19.60;99780.00;;;;5087426;28;20070;-77
2021/06/24 12:04:10;;;;;;;7.88;3.35;;;;;18.10;99789.00;;;;5087203;28;20040;-77
2021/06/24 12:07:00;;;;;;;9.70;3.75;;;;;18.00;99801.00;;;;5087275;28;20403;-78
2021/06/24 12:09:53;;;;;;;18.35;6.40;;;;;18.00;99829.00;;;;5087495;28;20044;-78
2021/06/24 12:12:24;;;;;;;17.42;4.25;;;;;18.10;99810.00;;;;5083925;28;20372;-77
2021/06/24 12:14:57;;;;;;;13.35;3.78;;;;;18.10;99788.00;;;;5087698;28;20052;-77
2021/06/24 12:17:28;;;;;;;8.05;2.15;;;;;18.70;99788.00;;;;5087142;28;20031;-77
2021/06/24 12:20:20;;;;;;;4.85;2.08;;;;;19.10;99766.00;;;;5087026;28;20039;-76
2021/06/24 12:23:02;;;;;;;10.93;3.22;;;;;19.10;99788.00;;;;5086967;28;20032;-77
2021/06/24 12:25:34;;;;;;;4.50;1.92;;;;;19.00;99763.00;;;;5086339;28;20434;-78
2021/06/24 12:28:03;;;;;;;6.15;2.17;;;;;18.80;99776.00;;;;5086890;28;20085;-77
2021/06/24 12:30:41;;;;;;;5.47;1.98;;;;;18.70;99794.00;;;;5086440;28;20028;-77
2021/06/24 12:33:13;;;;;;;8.70;2.13;;;;;18.70;99776.00;;;;5086692;28;20499;-77
2021/06/24 12:35:48;;;;;;;5.20;2.42;;;;;18.60;99779.00;;;;5086994;28;20028;-77